首页
METAR-TAF:

METAR-TAF

机场 :

Mountain Home, 阿肯色州, 美国

纬度: 36-22-14N, 经度: 092-28-19W, 海拔: 282米

当前天气观测

该预报发布于41分钟前的10:53 UTC
风速3节,风向西转西南
温度 -4°C
湿度 86%
气压 1025 hPa
能見度: 16.1公里
天空无云

METAR: KBPK 271053Z AUTO 25003KT 10SM CLR M04/M06 A3026 RMK AO2 SLP256 T10441061

时间: 05:34 (11:34 UTC)

预报

该预报发布于6小时和8分钟前的05:26 UTC
预报有效从27日的 06点(UTC)到 28日的 06点(UTC)
风速5节,风向多变
能見度: 10公里
散云层高于25000英尺
从 27日的 2000点(UTC)
风速8节,风向西转西南
能見度: 10公里
多云层高于20000英尺

TAF: KBPK 270526Z 2706/2806 VRB05KT P6SM SCT250 FM272000 24008KT P6SM BKN200

超过4000个机场的气象观测和天气预报(METAR&TAF报告)。

可查询的气象台以黄色和红色小点在地图上表示。

将鼠标移到小点上方,可查看气象台名称。

然后点击查看天气观测和预报。

如需切换地图:点击带黑十字的绿色按钮放大地图;点击带横线的绿色按钮缩小地图;或者点击绿色箭头查看邻近地区的地图。


METAR-TAF: